Time;durP1;ratioP1;P1;durP2;ratioP2;P2;SDS_P1;SDS_P2;PMS_P1;PMS_P2;Temp;Humidity;BMP_temperature;BMP_pressure;BME280_temperature;BME280_humidity;BME280_pressure;Samples;Min_cycle;Max_cycle;Signal;HPM_P1;HPM_P2
2022/11/05 00:16:54;;;;;;;3.20;1.95;;;16.90;57.30;;;;;;20716951;28;20125;-71
2022/11/05 00:26:54;;;;;;;2.65;1.73;;;17.00;57.40;;;;;;20734697;28;20117;-70
2022/11/05 00:36:55;;;;;;;3.20;1.67;;;16.90;57.50;;;;;;20746130;28;20044;-72
2022/11/05 00:49:28;;;;;;;2.40;1.65;;;16.90;57.50;;;;;;20730377;28;20045;-72
2022/11/05 00:57:16;;;;;;;3.10;1.92;;;16.90;57.50;;;;;;20757577;28;20043;-73
2022/11/05 01:07:17;;;;;;;2.50;1.58;;;16.80;57.50;;;;;;20741714;28;20556;-72
2022/11/05 01:17:17;;;;;;;2.40;1.30;;;16.80;57.60;;;;;;20716969;28;20045;-70
2022/11/05 01:27:18;;;;;;;3.58;1.73;;;16.80;57.60;;;;;;20741337;28;20038;-71
2022/11/05 01:37:19;;;;;;;4.10;1.98;;;16.70;57.60;;;;;;20761019;28;20045;-70
2022/11/05 01:47:45;;;;;;;2.40;1.65;;;16.70;57.60;;;;;;20710840;28;20120;-73
2022/11/05 01:57:45;;;;;;;3.25;1.70;;;16.70;57.70;;;;;;20764760;28;20038;-69
2022/11/05 02:07:46;;;;;;;2.53;1.40;;;16.70;58.30;;;;;;21091895;23;20755;-73
2022/11/05 02:17:51;;;;;;;5.33;2.13;;;16.60;57.70;;;;;;20707108;28;20034;-72
2022/11/05 02:28:00;;;;;;;2.67;1.77;;;16.60;57.70;;;;;;20767882;28;20290;-71
2022/11/05 02:38:09;;;;;;;4.68;1.83;;;16.60;57.70;;;;;;20758778;28;20055;-74
2022/11/05 02:48:15;;;;;;;3.38;2.28;;;16.60;57.70;;;;;;20728227;28;20042;-71
2022/11/05 02:58:16;;;;;;;4.57;1.65;;;16.50;57.70;;;;;;20744890;28;20124;-72
2022/11/05 03:08:37;;;;;;;1.80;1.42;;;16.50;57.70;;;;;;20723242;28;20036;-71
2022/11/05 03:18:50;;;;;;;2.78;1.70;;;16.50;57.80;;;;;;20735315;28;20033;-70
2022/11/05 03:28:59;;;;;;;1.65;1.35;;;16.50;57.80;;;;;;20756319;28;20052;-73
2022/11/05 03:39:01;;;;;;;2.83;1.67;;;16.50;57.80;;;;;;20741334;28;20037;-71
2022/11/05 03:49:03;;;;;;;2.80;1.58;;;16.40;57.70;;;;;;20721031;28;20041;-72
2022/11/05 03:59:04;;;;;;;2.97;1.52;;;16.40;57.70;;;;;;20718420;28;20033;-73
2022/11/05 04:40:01;;;;;;;2.25;1.58;;;16.30;57.90;;;;;;20744718;28;20033;-72
2022/11/05 04:50:02;;;;;;;2.63;1.48;;;16.30;57.90;;;;;;20691645;28;20042;-70
2022/11/05 05:00:05;;;;;;;3.17;1.52;;;16.20;57.80;;;;;;20730773;28;20041;-70
2022/11/05 05:10:06;;;;;;;2.08;1.42;;;16.20;57.90;;;;;;20754138;28;20125;-71
2022/11/05 05:30:26;;;;;;;1.80;1.23;;;16.20;57.90;;;;;;20761876;28;20038;-72
2022/11/05 05:40:26;;;;;;;1.88;1.20;;;16.20;58.00;;;;;;20772067;28;20045;-71
2022/11/05 05:50:27;;;;;;;2.08;1.20;;;16.20;58.00;;;;;;20681622;28;20127;-72
2022/11/05 06:00:28;;;;;;;1.80;1.20;;;16.10;58.00;;;;;;20745753;28;20029;-72
2022/11/05 06:10:28;;;;;;;2.13;1.25;;;16.10;58.10;;;;;;20800952;28;20302;-71
2022/11/05 06:20:29;;;;;;;1.80;1.15;;;16.10;58.10;;;;;;20732111;28;20034;-70
2022/11/05 06:30:29;;;;;;;1.55;1.00;;;16.00;58.10;;;;;;20725099;28;20046;-70
2022/11/05 06:40:30;;;;;;;2.30;1.60;;;16.00;58.10;;;;;;20730056;28;20069;-71
2022/11/05 06:50:31;;;;;;;2.30;1.13;;;16.00;58.10;;;;;;20720018;28;20770;-70
2022/11/05 07:00:31;;;;;;;2.73;1.37;;;15.90;58.10;;;;;;20724940;28;20133;-74
2022/11/05 07:10:32;;;;;;;2.10;1.40;;;15.90;58.10;;;;;;20793421;28;20318;-71
2022/11/05 07:20:33;;;;;;;1.57;1.00;;;15.90;58.20;;;;;;20752493;28;20308;-70
2022/11/05 07:30:34;;;;;;;2.72;1.38;;;15.90;58.30;;;;;;20736552;28;20289;-71
2022/11/05 07:40:34;;;;;;;1.60;1.10;;;15.90;58.20;;;;;;20761197;28;20551;-70
2022/11/05 07:50:35;;;;;;;2.17;1.10;;;15.80;58.20;;;;;;20741853;28;20488;-71
2022/11/05 08:00:36;;;;;;;2.45;1.17;;;15.80;58.20;;;;;;20714060;28;20037;-71
2022/11/05 08:10:37;;;;;;;3.40;1.42;;;15.80;58.40;;;;;;20755776;28;20046;-71
2022/11/05 08:20:37;;;;;;;2.15;1.25;;;15.70;58.40;;;;;;20723962;28;20034;-71
2022/11/05 08:30:38;;;;;;;1.97;1.40;;;15.70;58.40;;;;;;20753238;28;20444;-70
2022/11/05 08:40:38;;;;;;;3.55;1.45;;;15.70;58.40;;;;;;20714465;28;20297;-71
2022/11/05 08:50:39;;;;;;;1.50;1.10;;;15.70;58.50;;;;;;20714964;28;20042;-71
2022/11/05 09:00:40;;;;;;;2.33;1.10;;;15.70;58.70;;;;;;20746977;28;20053;-71
2022/11/05 09:10:41;;;;;;;3.42;1.38;;;15.70;58.70;;;;;;20707673;28;20042;-70
2022/11/05 09:20:42;;;;;;;2.47;1.50;;;15.80;58.70;;;;;;20728470;28;20045;-72
2022/11/05 09:30:43;;;;;;;3.30;1.50;;;15.80;58.70;;;;;;20722683;28;20479;-71
2022/11/05 09:40:53;;;;;;;2.42;1.15;;;15.90;58.60;;;;;;20746621;28;20037;-70
2022/11/05 09:50:54;;;;;;;2.72;2.08;;;16.00;58.50;;;;;;20773125;28;20391;-71
2022/11/05 10:00:56;;;;;;;2.95;1.30;;;16.10;58.30;;;;;;20772915;28;20057;-71
2022/11/05 10:11:06;;;;;;;2.42;1.20;;;16.20;58.10;;;;;;20736511;28;20041;-71
2022/11/05 10:21:08;;;;;;;2.78;1.42;;;16.30;57.80;;;;;;20737607;28;20476;-71
2022/11/05 10:31:11;;;;;;;4.03;1.42;;;16.40;57.50;;;;;;20732265;28;20025;-72
2022/11/05 10:41:37;;;;;;;4.47;1.15;;;16.50;57.20;;;;;;20719022;28;20041;-73
2022/11/05 10:51:37;;;;;;;1.98;0.95;;;16.70;56.90;;;;;;20740875;28;20030;-70
2022/11/05 11:01:38;;;;;;;1.75;1.02;;;16.80;56.60;;;;;;20745706;28;20125;-72
2022/11/05 11:11:40;;;;;;;4.37;1.23;;;16.80;56.30;;;;;;20746309;28;20438;-72
2022/11/05 11:21:41;;;;;;;1.08;0.50;;;16.90;56.00;;;;;;20738690;28;20296;-71
2022/11/05 11:31:42;;;;;;;7.20;2.08;;;17.00;55.70;;;;;;20722521;28;20041;-74
2022/11/05 11:41:43;;;;;;;1.88;0.82;;;17.10;55.40;;;;;;20712022;28;20480;-71
2022/11/05 11:51:43;;;;;;;3.53;1.10;;;17.30;55.10;;;;;;20749437;28;20049;-72
2022/11/05 12:01:53;;;;;;;2.05;1.02;;;17.40;54.80;;;;;;20749860;28;20039;-71
2022/11/05 12:11:56;;;;;;;2.78;1.00;;;17.40;54.50;;;;;;20765373;28;20052;-70
2022/11/05 12:21:59;;;;;;;2.35;0.88;;;17.60;54.20;;;;;;20762047;28;20061;-71
2022/11/05 12:32:21;;;;;;;2.40;0.90;;;17.70;54.10;;;;;;20771484;28;20080;-72
2022/11/05 12:42:35;;;;;;;2.75;0.85;;;17.80;53.90;;;;;;20754377;28;20491;-71
2022/11/05 12:53:13;;;;;;;3.88;1.00;;;17.80;53.50;;;;;;20753868;28;20048;-70
2022/11/05 13:03:43;;;;;;;2.15;0.88;;;17.90;53.20;;;;;;20746650;28;20038;-71
2022/11/05 13:14:04;;;;;;;1.45;0.80;;;18.00;53.00;;;;;;20758888;28;20045;-71
2022/11/05 13:24:15;;;;;;;4.30;0.90;;;18.00;52.70;;;;;;20728953;28;20715;-71
2022/11/05 13:34:16;;;;;;;2.20;1.02;;;18.10;52.80;;;;;;20726253;28;20458;-73
2022/11/05 13:44:36;;;;;;;3.45;0.77;;;18.00;52.60;;;;;;20753299;28;20132;-72
2022/11/05 13:54:57;;;;;;;2.08;0.90;;;18.00;52.50;;;;;;20755491;28;20041;-72
2022/11/05 14:04:58;;;;;;;1.25;0.70;;;18.00;52.50;;;;;;20732985;28;20060;-71
2022/11/05 14:15:07;;;;;;;2.22;1.08;;;18.00;52.50;;;;;;20744389;28;20100;-70
2022/11/05 14:25:17;;;;;;;5.35;1.77;;;18.00;52.50;;;;;;20752502;28;20033;-71
2022/11/05 14:35:17;;;;;;;1.08;0.65;;;18.00;52.50;;;;;;20777069;28;20072;-71
2022/11/05 14:45:38;;;;;;;1.38;1.02;;;18.00;52.50;;;;;;20779293;28;20061;-70
2022/11/05 14:55:40;;;;;;;5.13;1.25;;;17.90;52.50;;;;;;20748525;28;20056;-71
2022/11/05 15:05:47;;;;;;;2.00;1.15;;;17.90;52.50;;;;;;20730559;28;20045;-73
2022/11/05 15:15:49;;;;;;;3.38;1.30;;;17.90;52.50;;;;;;20735583;28;20484;-71
2022/11/05 15:26:12;;;;;;;1.92;1.00;;;17.90;52.50;;;;;;20764507;28;20050;-70
2022/11/05 15:36:23;;;;;;;2.47;1.10;;;17.90;52.60;;;;;;20742350;28;20069;-70
2022/11/05 15:46:28;;;;;;;2.90;1.27;;;17.90;52.60;;;;;;20736685;28;20030;-71
2022/11/05 15:56:39;;;;;;;1.33;0.97;;;17.80;52.70;;;;;;20713858;28;20041;-71
2022/11/05 16:06:40;;;;;;;1.52;0.98;;;17.90;52.70;;;;;;20747282;28;20517;-70
2022/11/05 16:16:40;;;;;;;1.90;0.95;;;17.90;52.80;;;;;;20723710;28;20467;-71
2022/11/05 16:26:41;;;;;;;2.97;1.20;;;17.80;52.80;;;;;;20737110;28;20065;-71
2022/11/05 16:36:41;;;;;;;1.50;1.05;;;17.80;52.80;;;;;;20718869;28;20044;-73
2022/11/05 16:46:47;;;;;;;1.10;1.00;;;17.80;52.90;;;;;;20728711;28;20029;-70
2022/11/05 16:56:48;;;;;;;5.20;1.60;;;17.70;52.90;;;;;;20729259;28;20720;-70
2022/11/05 17:06:48;;;;;;;1.45;1.00;;;17.70;52.90;;;;;;20730626;28;20125;-72
2022/11/05 17:16:49;;;;;;;2.70;1.15;;;17.70;52.90;;;;;;20738528;28;20034;-73
2022/11/05 17:26:50;;;;;;;2.78;1.20;;;17.70;53.00;;;;;;20733847;28;20030;-72
2022/11/05 17:36:50;;;;;;;1.50;1.00;;;17.60;53.00;;;;;;20718157;28;20038;-71
2022/11/05 17:46:51;;;;;;;0.98;0.60;;;17.60;53.10;;;;;;20706831;28;20132;-72
2022/11/05 17:56:51;;;;;;;1.85;1.10;;;17.60;53.10;;;;;;20709401;28;20045;-72
2022/11/05 18:06:52;;;;;;;2.00;0.95;;;17.60;53.20;;;;;;20704663;28;20085;-70
2022/11/05 18:16:58;;;;;;;2.13;0.82;;;17.60;53.20;;;;;;20748585;28;20051;-72
2022/11/05 18:26:58;;;;;;;3.07;1.20;;;17.50;53.20;;;;;;20786265;28;20369;-71
2022/11/05 18:36:59;;;;;;;2.45;1.27;;;17.50;53.30;;;;;;20716145;28;20092;-71
2022/11/05 18:46:59;;;;;;;3.15;1.00;;;17.50;53.30;;;;;;20718078;28;20121;-71
2022/11/05 18:57:00;;;;;;;1.17;0.90;;;17.50;53.40;;;;;;20752985;28;20042;-72
2022/11/05 19:07:01;;;;;;;1.35;0.88;;;17.50;53.40;;;;;;20745899;28;20464;-72
2022/11/05 19:17:02;;;;;;;1.48;0.90;;;17.50;53.50;;;;;;20710701;28;20103;-72
2022/11/05 19:27:03;;;;;;;7.97;3.03;;;17.40;53.50;;;;;;20711623;28;20464;-72
2022/11/05 19:37:06;;;;;;;4.13;2.10;;;17.40;53.40;;;;;;20729726;28;20300;-73
2022/11/05 19:47:06;;;;;;;3.70;1.88;;;17.40;53.50;;;;;;20774627;28;20029;-71
2022/11/05 19:57:07;;;;;;;4.68;2.75;;;17.40;53.50;;;;;;20727140;28;20040;-71
2022/11/05 20:07:07;;;;;;;5.28;2.25;;;17.40;53.60;;;;;;20751582;28;20049;-71
2022/11/05 20:17:08;;;;;;;3.90;2.42;;;17.40;53.60;;;;;;20731852;28;20029;-71
2022/11/05 20:27:09;;;;;;;3.22;1.98;;;17.40;53.70;;;;;;20712130;28;20030;-74
2022/11/05 20:37:09;;;;;;;4.33;2.10;;;17.30;53.60;;;;;;20707385;28;20060;-71
2022/11/05 20:47:10;;;;;;;3.72;1.90;;;17.30;53.70;;;;;;20744759;28;20338;-72
2022/11/05 20:57:10;;;;;;;6.32;2.00;;;17.30;53.70;;;;;;20682567;28;20038;-71
2022/11/05 21:07:11;;;;;;;4.00;1.90;;;17.30;53.70;;;;;;20722359;28;20034;-72
2022/11/05 21:17:12;;;;;;;2.80;1.75;;;17.20;53.70;;;;;;20733293;28;20049;-71
2022/11/05 21:27:12;;;;;;;3.75;2.20;;;17.20;53.70;;;;;;20702992;28;20050;-72
2022/11/05 21:37:13;;;;;;;4.00;2.38;;;17.20;53.80;;;;;;20746596;28;20040;-72
2022/11/05 21:47:14;;;;;;;4.78;2.65;;;17.20;53.70;;;;;;20730500;28;20472;-71
2022/11/05 22:07:36;;;;;;;5.38;2.17;;;17.20;53.80;;;;;;20778999;28;20037;-71
2022/11/05 22:17:37;;;;;;;4.18;2.10;;;17.20;53.80;;;;;;20760612;28;20538;-72
2022/11/05 22:27:37;;;;;;;4.03;1.95;;;17.10;53.80;;;;;;20732387;28;20112;-71
2022/11/05 22:37:38;;;;;;;4.60;1.93;;;17.10;53.80;;;;;;20757823;28;20033;-71
2022/11/05 22:47:42;;;;;;;4.60;2.08;;;17.10;53.90;;;;;;20716129;28;20293;-71
2022/11/05 22:57:42;;;;;;;2.60;1.50;;;17.10;53.90;;;;;;20714010;28;20487;-71
2022/11/05 23:28:22;;;;;;;3.08;1.52;;;17.10;54.00;;;;;;20758176;28;20030;-71
2022/11/05 23:38:32;;;;;;;3.50;1.80;;;17.10;54.00;;;;;;20751149;28;20038;-71
2022/11/05 23:48:34;;;;;;;2.22;1.50;;;17.00;54.00;;;;;;20712134;28;20393;-71
2022/11/05 23:58:35;;;;;;;2.92;1.67;;;17.00;54.00;;;;;;20752560;28;20096;-71
